sensor_id;sensor_type;location;lat;lon;timestamp;pressure;altitude;pressure_sealevel;temperature;humidity
63901;BME280;50538;53.482;10.294;2023-04-05T00:09:19;102179.69;;;0.24;77.16
63901;BME280;50538;53.482;10.294;2023-04-05T00:19:20;102183.53;;;0.15;77.05
63901;BME280;50538;53.482;10.294;2023-04-05T00:29:22;102182.63;;;-0.04;77.31
63901;BME280;50538;53.482;10.294;2023-04-05T00:39:52;102185.00;;;-0.20;78.27
63901;BME280;50538;53.482;10.294;2023-04-05T00:49:53;102173.28;;;-0.32;77.64
63901;BME280;50538;53.482;10.294;2023-04-05T00:59:54;102175.22;;;-0.37;78.04
63901;BME280;50538;53.482;10.294;2023-04-05T01:10:01;102160.97;;;-0.50;78.47
63901;BME280;50538;53.482;10.294;2023-04-05T01:20:09;102162.31;;;-0.61;78.88
63901;BME280;50538;53.482;10.294;2023-04-05T01:30:21;102157.31;;;-0.68;79.29
63901;BME280;50538;53.482;10.294;2023-04-05T01:40:23;102147.13;;;-0.74;78.99
63901;BME280;50538;53.482;10.294;2023-04-05T01:50:25;102122.31;;;-0.84;79.86
63901;BME280;50538;53.482;10.294;2023-04-05T02:00:43;102110.53;;;-0.94;79.75
63901;BME280;50538;53.482;10.294;2023-04-05T02:10:44;102103.72;;;-0.98;79.94
63901;BME280;50538;53.482;10.294;2023-04-05T02:20:50;102104.63;;;-0.99;79.51
63901;BME280;50538;53.482;10.294;2023-04-05T02:30:50;102095.16;;;-1.02;80.02
63901;BME280;50538;53.482;10.294;2023-04-05T02:40:56;102094.47;;;-1.05;80.51
63901;BME280;50538;53.482;10.294;2023-04-05T02:50:58;102094.81;;;-1.14;80.10
63901;BME280;50538;53.482;10.294;2023-04-05T03:00:58;102090.84;;;-1.24;80.45
63901;BME280;50538;53.482;10.294;2023-04-05T03:11:00;102077.31;;;-1.34;80.93
63901;BME280;50538;53.482;10.294;2023-04-05T03:21:01;102072.50;;;-1.45;80.78
63901;BME280;50538;53.482;10.294;2023-04-05T03:31:31;102083.88;;;-1.47;81.43
63901;BME280;50538;53.482;10.294;2023-04-05T03:41:31;102079.56;;;-1.48;81.13
63901;BME280;50538;53.482;10.294;2023-04-05T03:51:33;102070.03;;;-1.49;81.12
63901;BME280;50538;53.482;10.294;2023-04-05T04:01:36;102071.16;;;-1.56;80.54
63901;BME280;50538;53.482;10.294;2023-04-05T04:11:51;102066.22;;;-1.63;81.52
63901;BME280;50538;53.482;10.294;2023-04-05T04:21:51;102064.63;;;-1.67;83.04
63901;BME280;50538;53.482;10.294;2023-04-05T04:31:52;102062.03;;;-1.67;83.02
63901;BME280;50538;53.482;10.294;2023-04-05T04:41:52;102059.53;;;-1.70;81.19
63901;BME280;50538;53.482;10.294;2023-04-05T04:51:54;102063.31;;;-1.78;81.91
63901;BME280;50538;53.482;10.294;2023-04-05T05:02:09;102072.72;;;-1.74;82.71
63901;BME280;50538;53.482;10.294;2023-04-05T05:12:10;102071.81;;;-1.73;82.53
63901;BME280;50538;53.482;10.294;2023-04-05T05:22:31;102066.59;;;-1.73;82.25
63901;BME280;50538;53.482;10.294;2023-04-05T05:32:41;102063.47;;;-1.59;83.84
63901;BME280;50538;53.482;10.294;2023-04-05T05:42:46;102058.44;;;-1.41;87.11
63901;BME280;50538;53.482;10.294;2023-04-05T05:52:46;102053.00;;;-1.11;89.76
63901;BME280;50538;53.482;10.294;2023-04-05T06:02:48;102056.22;;;-0.61;92.33
63901;BME280;50538;53.482;10.294;2023-04-05T06:12:49;102046.09;;;0.13;92.66
63901;BME280;50538;53.482;10.294;2023-04-05T06:22:51;102056.28;;;0.77;88.99
63901;BME280;50538;53.482;10.294;2023-04-05T06:32:53;102051.06;;;0.95;86.21
63901;BME280;50538;53.482;10.294;2023-04-05T06:42:53;102044.06;;;1.32;83.42
63901;BME280;50538;53.482;10.294;2023-04-05T06:52:54;102035.38;;;2.33;76.48
63901;BME280;50538;53.482;10.294;2023-04-05T07:02:54;102028.25;;;3.46;71.33
63901;BME280;50538;53.482;10.294;2023-04-05T07:12:55;102020.13;;;3.94;65.08
63901;BME280;50538;53.482;10.294;2023-04-05T07:22:55;102022.56;;;4.68;63.28
63901;BME280;50538;53.482;10.294;2023-04-05T07:32:57;102018.53;;;5.31;55.50
63901;BME280;50538;53.482;10.294;2023-04-05T07:42:58;102007.31;;;5.92;52.12
63901;BME280;50538;53.482;10.294;2023-04-05T07:52:58;101996.94;;;6.53;50.73
63901;BME280;50538;53.482;10.294;2023-04-05T08:02:59;101997.50;;;6.94;48.70
63901;BME280;50538;53.482;10.294;2023-04-05T08:12:59;101987.47;;;7.35;46.47
63901;BME280;50538;53.482;10.294;2023-04-05T08:23:00;101987.94;;;7.75;44.75
63901;BME280;50538;53.482;10.294;2023-04-05T08:33:00;101982.72;;;8.19;44.46
63901;BME280;50538;53.482;10.294;2023-04-05T08:53:22;101973.69;;;8.98;42.62
63901;BME280;50538;53.482;10.294;2023-04-05T09:03:25;101964.28;;;9.38;39.58
63901;BME280;50538;53.482;10.294;2023-04-05T09:13:27;101960.16;;;9.86;40.54
63901;BME280;50538;53.482;10.294;2023-04-05T09:23:28;101953.78;;;10.29;41.24
63901;BME280;50538;53.482;10.294;2023-04-05T09:33:28;101961.81;;;10.48;38.09
63901;BME280;50538;53.482;10.294;2023-04-05T09:43:39;101954.94;;;11.05;37.64
63901;BME280;50538;53.482;10.294;2023-04-05T09:54:06;101949.31;;;11.37;37.03
63901;BME280;50538;53.482;10.294;2023-04-05T10:04:07;101930.06;;;11.82;38.67
63901;BME280;50538;53.482;10.294;2023-04-05T10:14:08;101916.84;;;11.90;35.57
63901;BME280;50538;53.482;10.294;2023-04-05T10:24:20;101903.31;;;12.66;36.84
63901;BME280;50538;53.482;10.294;2023-04-05T10:34:34;101893.88;;;12.71;35.48
63901;BME280;50538;53.482;10.294;2023-04-05T10:44:38;101867.81;;;13.01;34.94
63901;BME280;50538;53.482;10.294;2023-04-05T10:54:43;101866.72;;;12.68;36.87
63901;BME280;50538;53.482;10.294;2023-04-05T11:04:43;101859.41;;;12.42;38.04
63901;BME280;50538;53.482;10.294;2023-04-05T11:14:44;101860.75;;;11.37;38.11
63901;BME280;50538;53.482;10.294;2023-04-05T11:35:03;101846.41;;;11.57;49.34
63901;BME280;50538;53.482;10.294;2023-04-05T11:45:04;101824.69;;;11.89;46.04
63901;BME280;50538;53.482;10.294;2023-04-05T11:55:05;101809.84;;;13.03;37.70
63901;BME280;50538;53.482;10.294;2023-04-05T12:05:06;101799.81;;;13.22;35.63
63901;BME280;50538;53.482;10.294;2023-04-05T12:15:08;101799.78;;;12.71;35.16
63901;BME280;50538;53.482;10.294;2023-04-05T12:25:11;101794.06;;;12.48;35.85
63901;BME280;50538;53.482;10.294;2023-04-05T12:35:17;101792.28;;;12.21;40.17
63901;BME280;50538;53.482;10.294;2023-04-05T12:45:22;101769.00;;;12.05;37.83
63901;BME280;50538;53.482;10.294;2023-04-05T12:55:24;101767.50;;;12.20;38.49
63901;BME280;50538;53.482;10.294;2023-04-05T13:05:27;101728.56;;;13.07;36.89
63901;BME280;50538;53.482;10.294;2023-04-05T13:15:28;101721.75;;;13.46;34.94
63901;BME280;50538;53.482;10.294;2023-04-05T13:25:28;101719.22;;;12.77;40.40
63901;BME280;50538;53.482;10.294;2023-04-05T13:35:56;101714.75;;;12.59;36.74
63901;BME280;50538;53.482;10.294;2023-04-05T15:14:16;101673.06;;;11.79;45.89
63901;BME280;50538;53.482;10.294;2023-04-05T16:41:13;101616.78;;;10.27;45.51
63901;BME280;50538;53.482;10.294;2023-04-05T16:52:12;101615.69;;;10.11;47.35
63901;BME280;50538;53.482;10.294;2023-04-05T17:03:21;101609.53;;;10.10;49.13
63901;BME280;50538;53.482;10.294;2023-04-05T17:13:43;101608.19;;;9.87;47.04
63901;BME280;50538;53.482;10.294;2023-04-05T17:44:45;101619.00;;;9.45;58.67
63901;BME280;50538;53.482;10.294;2023-04-05T17:55:24;101635.28;;;9.21;57.12
63901;BME280;50538;53.482;10.294;2023-04-05T18:05:36;101635.28;;;8.91;58.80
63901;BME280;50538;53.482;10.294;2023-04-05T18:15:54;101647.03;;;8.68;59.27
63901;BME280;50538;53.482;10.294;2023-04-05T18:26:23;101651.63;;;8.45;60.10
63901;BME280;50538;53.482;10.294;2023-04-05T18:36:36;101664.53;;;8.17;60.70
63901;BME280;50538;53.482;10.294;2023-04-05T18:47:16;101660.56;;;7.91;62.88
63901;BME280;50538;53.482;10.294;2023-04-05T19:08:35;101682.09;;;7.32;65.59
63901;BME280;50538;53.482;10.294;2023-04-05T19:19:05;101694.44;;;7.09;66.10
63901;BME280;50538;53.482;10.294;2023-04-05T19:29:12;101692.41;;;6.79;66.62
63901;BME280;50538;53.482;10.294;2023-04-05T19:39:13;101698.34;;;6.59;67.20
63901;BME280;50538;53.482;10.294;2023-04-05T19:49:31;101692.16;;;6.36;67.46
63901;BME280;50538;53.482;10.294;2023-04-05T19:59:55;101690.66;;;6.21;69.18
63901;BME280;50538;53.482;10.294;2023-04-05T20:10:04;101680.84;;;5.99;69.60
63901;BME280;50538;53.482;10.294;2023-04-05T20:20:13;101679.19;;;5.74;70.31
63901;BME280;50538;53.482;10.294;2023-04-05T20:30:15;101676.41;;;5.52;70.71
63901;BME280;50538;53.482;10.294;2023-04-05T20:40:15;101670.56;;;5.35;70.69
63901;BME280;50538;53.482;10.294;2023-04-05T20:50:36;101666.81;;;5.27;71.74
63901;BME280;50538;53.482;10.294;2023-04-05T21:00:36;101662.00;;;5.08;71.59
63901;BME280;50538;53.482;10.294;2023-04-05T21:10:40;101660.75;;;4.88;72.14
63901;BME280;50538;53.482;10.294;2023-04-05T21:21:00;101655.19;;;4.80;71.74
63901;BME280;50538;53.482;10.294;2023-04-05T21:31:10;101651.72;;;4.67;72.66
63901;BME280;50538;53.482;10.294;2023-04-05T21:41:11;101651.09;;;4.51;73.22
63901;BME280;50538;53.482;10.294;2023-04-05T21:51:13;101649.69;;;4.32;72.99
63901;BME280;50538;53.482;10.294;2023-04-05T22:01:13;101655.66;;;4.09;72.92
63901;BME280;50538;53.482;10.294;2023-04-05T22:11:14;101651.81;;;3.88;73.78
63901;BME280;50538;53.482;10.294;2023-04-05T22:21:20;101644.47;;;3.66;74.19
63901;BME280;50538;53.482;10.294;2023-04-05T22:31:20;101637.81;;;3.48;75.29
63901;BME280;50538;53.482;10.294;2023-04-05T22:41:21;101638.78;;;3.32;75.47
63901;BME280;50538;53.482;10.294;2023-04-05T22:51:21;101643.09;;;3.19;75.78
63901;BME280;50538;53.482;10.294;2023-04-05T23:01:30;101633.47;;;3.06;75.97
63901;BME280;50538;53.482;10.294;2023-04-05T23:11:31;101628.25;;;2.91;76.63
63901;BME280;50538;53.482;10.294;2023-04-05T23:21:32;101625.72;;;2.76;77.02
63901;BME280;50538;53.482;10.294;2023-04-05T23:31:33;101618.88;;;2.59;77.17
63901;BME280;50538;53.482;10.294;2023-04-05T23:41:34;101607.53;;;2.44;77.63
63901;BME280;50538;53.482;10.294;2023-04-05T23:51:38;101601.00;;;2.37;78.50
